EZY3065 EGAA-LSGG
Flight info
| Callsign | EZY3065 |
|---|---|
| Flight time | 1h 50m |
| Altitude | 37000 |
| Route | LISBO DCT RINGA Q39 BABGU DCT ETIGA DCT INKOB Q39 NOMSU UQ4 WAL L151 MID UL612 BOGNA/N0415F310 UL612 VEULE DCT PEKIM DCT PILUL DCT PIMUP DCT PIXIS DCT PIBAT DCT LUSAR |
| Aircraft | A320/M-SDE2E3FGHIJ1RWXYZ/LB1 |
Departure
| Time | 2026-05-05 20:23 |
|---|---|
| Airport | Belfast International Airport (EGAA) |
Arrival
| Time | 2026-05-05 22:14 |
|---|---|
| Airport | Geneva International Airport (LSGG) |
| Time | Latitude | Longitude | Altitude | Speed | Heading |
|---|---|---|---|---|---|
| 2026-05-05 19:50 | 54.66109 | -6.21354 | 275 ft | 0 kts | 245° |
| 2026-05-05 20:15 | 54.66115 | -6.21334 | 272 ft | 2 kts | 245° |
| 2026-05-05 20:15 | 54.66122 | -6.21306 | 275 ft | 3 kts | 232° |
| 2026-05-05 20:15 | 54.66135 | -6.21286 | 276 ft | 3 kts | 197° |
| 2026-05-05 20:16 | 54.66153 | -6.21282 | 277 ft | 3 kts | 161° |
| 2026-05-05 20:16 | 54.66156 | -6.21284 | 276 ft | 0 kts | 154° |
| 2026-05-05 20:18 | 54.66141 | -6.21271 | 279 ft | 6 kts | 154° |
| 2026-05-05 20:18 | 54.66086 | -6.21228 | 274 ft | 11 kts | 156° |
| 2026-05-05 20:18 | 54.66026 | -6.21244 | 273 ft | 9 kts | 230° |
| 2026-05-05 20:19 | 54.65979 | -6.21406 | 275 ft | 19 kts | 245° |
| 2026-05-05 20:19 | 54.65925 | -6.21607 | 272 ft | 19 kts | 245° |
| 2026-05-05 20:19 | 54.65870 | -6.21813 | 272 ft | 19 kts | 245° |
| 2026-05-05 20:19 | 54.65813 | -6.22027 | 272 ft | 20 kts | 244° |
| 2026-05-05 20:20 | 54.65771 | -6.22237 | 272 ft | 13 kts | 261° |
| 2026-05-05 20:20 | 54.65757 | -6.22390 | 272 ft | 12 kts | 261° |
| 2026-05-05 20:20 | 54.65747 | -6.22537 | 272 ft | 15 kts | 266° |
| 2026-05-05 20:20 | 54.65738 | -6.22771 | 272 ft | 21 kts | 261° |
| 2026-05-05 20:21 | 54.65669 | -6.22998 | 274 ft | 22 kts | 234° |
| 2026-05-05 20:21 | 54.65577 | -6.23218 | 272 ft | 23 kts | 233° |
| 2026-05-05 20:21 | 54.65458 | -6.23373 | 272 ft | 17 kts | 202° |
| 2026-05-05 20:21 | 54.65354 | -6.23392 | 272 ft | 15 kts | 157° |
| 2026-05-05 20:22 | 54.65292 | -6.23286 | 272 ft | 12 kts | 91° |
| 2026-05-05 20:22 | 54.65308 | -6.23217 | 272 ft | 2 kts | 65° |
| 2026-05-05 20:22 | 54.65323 | -6.23159 | 273 ft | 22 kts | 65° |
| 2026-05-05 20:22 | 54.65503 | -6.22491 | 272 ft | 97 kts | 65° |
| 2026-05-05 20:23 | 54.65872 | -6.21123 | 276 ft | 152 kts | 65° |
| 2026-05-05 20:23 | 54.66176 | -6.19966 | 577 ft | 159 kts | 61° |
| 2026-05-05 20:23 | 54.66650 | -6.18208 | 1329 ft | 161 kts | 60° |
| 2026-05-05 20:23 | 54.67129 | -6.16393 | 1883 ft | 175 kts | 65° |
| 2026-05-05 20:24 | 54.67119 | -6.14149 | 2129 ft | 209 kts | 110° |
| 2026-05-05 20:24 | 54.66292 | -6.11935 | 2436 ft | 236 kts | 125° |
| 2026-05-05 20:24 | 54.65177 | -6.09650 | 2867 ft | 260 kts | 129° |
| 2026-05-05 20:24 | 54.63958 | -6.07288 | 3681 ft | 266 kts | 130° |
| 2026-05-05 20:25 | 54.62732 | -6.04897 | 4623 ft | 266 kts | 130° |
| 2026-05-05 20:25 | 54.61520 | -6.02482 | 5539 ft | 267 kts | 129° |
| 2026-05-05 20:25 | 54.60314 | -6.00022 | 6406 ft | 270 kts | 129° |
| 2026-05-05 20:25 | 54.59102 | -5.97510 | 7165 ft | 275 kts | 129° |
| 2026-05-05 20:26 | 54.57868 | -5.94929 | 7876 ft | 282 kts | 129° |
| 2026-05-05 20:26 | 54.56609 | -5.92279 | 8595 ft | 289 kts | 129° |
| 2026-05-05 20:26 | 54.55324 | -5.89567 | 9365 ft | 295 kts | 129° |
| 2026-05-05 20:26 | 54.54017 | -5.86808 | 10109 ft | 300 kts | 129° |
| 2026-05-05 20:27 | 54.52670 | -5.83967 | 10517 ft | 317 kts | 129° |
| 2026-05-05 20:27 | 54.51224 | -5.80922 | 10750 ft | 339 kts | 129° |
| 2026-05-05 20:27 | 54.49710 | -5.77733 | 11296 ft | 348 kts | 130° |
| 2026-05-05 20:27 | 54.48168 | -5.74494 | 11970 ft | 352 kts | 130° |
| 2026-05-05 20:28 | 54.46605 | -5.71219 | 12651 ft | 357 kts | 130° |
| 2026-05-05 20:28 | 54.45018 | -5.67895 | 13323 ft | 362 kts | 130° |
| 2026-05-05 20:28 | 54.43410 | -5.64535 | 13974 ft | 366 kts | 130° |
| 2026-05-05 20:28 | 54.41786 | -5.61151 | 14572 ft | 369 kts | 130° |
| 2026-05-05 20:29 | 54.40146 | -5.57738 | 15181 ft | 372 kts | 130° |
| 2026-05-05 20:29 | 54.38547 | -5.54216 | 15796 ft | 375 kts | 127° |
| 2026-05-05 20:29 | 54.37020 | -5.50556 | 16406 ft | 379 kts | 126° |
| 2026-05-05 20:29 | 54.35532 | -5.46813 | 17014 ft | 382 kts | 124° |
| 2026-05-05 20:30 | 54.34048 | -5.43018 | 17615 ft | 385 kts | 124° |
| 2026-05-05 20:30 | 54.32552 | -5.39198 | 18204 ft | 388 kts | 125° |
| 2026-05-05 20:30 | 54.31030 | -5.35365 | 18734 ft | 391 kts | 125° |
| 2026-05-05 20:30 | 54.29482 | -5.31525 | 19232 ft | 393 kts | 126° |
| 2026-05-05 20:31 | 54.27907 | -5.27673 | 19747 ft | 396 kts | 127° |
| 2026-05-05 20:31 | 54.26254 | -5.23889 | 20236 ft | 398 kts | 129° |
| 2026-05-05 20:31 | 54.24511 | -5.20192 | 20731 ft | 400 kts | 131° |
| 2026-05-05 20:31 | 54.22714 | -5.16540 | 21211 ft | 403 kts | 131° |
| 2026-05-05 20:32 | 54.20889 | -5.12883 | 21686 ft | 406 kts | 132° |
| 2026-05-05 20:32 | 54.19056 | -5.09203 | 22155 ft | 408 kts | 131° |
| 2026-05-05 20:32 | 54.17222 | -5.05480 | 22634 ft | 411 kts | 131° |
| 2026-05-05 20:32 | 54.15389 | -5.01719 | 23090 ft | 414 kts | 131° |
| 2026-05-05 20:33 | 54.13552 | -4.97920 | 23529 ft | 416 kts | 131° |
| 2026-05-05 20:33 | 54.11710 | -4.94098 | 23921 ft | 419 kts | 131° |
| 2026-05-05 20:33 | 54.09856 | -4.90257 | 24281 ft | 421 kts | 131° |
| 2026-05-05 20:33 | 54.07987 | -4.86400 | 24655 ft | 423 kts | 131° |
| 2026-05-05 20:34 | 54.06102 | -4.82532 | 25012 ft | 425 kts | 131° |
| 2026-05-05 20:34 | 54.04208 | -4.78650 | 25370 ft | 428 kts | 131° |
| 2026-05-05 20:34 | 54.02346 | -4.74688 | 25723 ft | 430 kts | 129° |
| 2026-05-05 20:34 | 54.00527 | -4.70630 | 26073 ft | 432 kts | 128° |
| 2026-05-05 20:35 | 53.98731 | -4.66519 | 26411 ft | 435 kts | 128° |
| 2026-05-05 20:35 | 53.96932 | -4.62376 | 26761 ft | 437 kts | 128° |
| 2026-05-05 20:35 | 53.95118 | -4.58226 | 27093 ft | 439 kts | 128° |
| 2026-05-05 20:35 | 53.93280 | -4.54075 | 27431 ft | 441 kts | 129° |
| 2026-05-05 20:36 | 53.91424 | -4.49923 | 27769 ft | 443 kts | 129° |
| 2026-05-05 20:36 | 53.89551 | -4.45768 | 28096 ft | 445 kts | 129° |
| 2026-05-05 20:36 | 53.87665 | -4.41602 | 28425 ft | 447 kts | 129° |
| 2026-05-05 20:36 | 53.85815 | -4.37437 | 28741 ft | 449 kts | 128° |
| 2026-05-05 20:37 | 53.83998 | -4.33119 | 29060 ft | 452 kts | 126° |
| 2026-05-05 20:37 | 53.82217 | -4.28723 | 29358 ft | 454 kts | 126° |
| 2026-05-05 20:37 | 53.80449 | -4.24282 | 29657 ft | 456 kts | 125° |
| 2026-05-05 20:37 | 53.78673 | -4.19827 | 29950 ft | 458 kts | 126° |
| 2026-05-05 20:38 | 53.76880 | -4.15366 | 30213 ft | 460 kts | 126° |
| 2026-05-05 20:38 | 53.75066 | -4.10905 | 30448 ft | 461 kts | 126° |
| 2026-05-05 20:38 | 53.73232 | -4.06448 | 30693 ft | 463 kts | 126° |
| 2026-05-05 20:38 | 53.71384 | -4.01990 | 30962 ft | 463 kts | 127° |
| 2026-05-05 20:39 | 53.69532 | -3.97545 | 31304 ft | 462 kts | 127° |
| 2026-05-05 20:39 | 53.67687 | -3.93121 | 31648 ft | 461 kts | 127° |
| 2026-05-05 20:39 | 53.65844 | -3.88705 | 31987 ft | 460 kts | 127° |
| 2026-05-05 20:39 | 53.64004 | -3.84301 | 32323 ft | 459 kts | 127° |
| 2026-05-05 20:40 | 53.62167 | -3.79911 | 32642 ft | 458 kts | 127° |
| 2026-05-05 20:40 | 53.60334 | -3.75532 | 32984 ft | 457 kts | 127° |
| 2026-05-05 20:40 | 53.58506 | -3.71159 | 33313 ft | 457 kts | 127° |
| 2026-05-05 20:40 | 53.56680 | -3.66795 | 33642 ft | 456 kts | 127° |
| 2026-05-05 20:41 | 53.54854 | -3.62441 | 33968 ft | 455 kts | 127° |
| 2026-05-05 20:41 | 53.53030 | -3.58098 | 34258 ft | 454 kts | 127° |
| 2026-05-05 20:41 | 53.51204 | -3.53765 | 34512 ft | 454 kts | 127° |
| 2026-05-05 20:41 | 53.49377 | -3.49446 | 34743 ft | 454 kts | 127° |
| 2026-05-05 20:42 | 53.47570 | -3.45103 | 34981 ft | 454 kts | 123° |
| 2026-05-05 20:42 | 53.46061 | -3.40441 | 35199 ft | 456 kts | 115° |
| 2026-05-05 20:42 | 53.44821 | -3.35543 | 35417 ft | 456 kts | 114° |
| 2026-05-05 20:42 | 53.43585 | -3.30649 | 35643 ft | 456 kts | 114° |
| 2026-05-05 20:43 | 53.42343 | -3.25761 | 35845 ft | 456 kts | 114° |
| 2026-05-05 20:43 | 53.41076 | -3.20892 | 36067 ft | 455 kts | 118° |
| 2026-05-05 20:43 | 53.39479 | -3.16345 | 36265 ft | 452 kts | 128° |
| 2026-05-05 20:43 | 53.37481 | -3.12302 | 36457 ft | 450 kts | 137° |
| 2026-05-05 20:44 | 53.35142 | -3.08853 | 36644 ft | 447 kts | 146° |
| 2026-05-05 20:44 | 53.32586 | -3.05899 | 36818 ft | 446 kts | 148° |
| 2026-05-05 20:44 | 53.30021 | -3.02981 | 37001 ft | 446 kts | 148° |
| 2026-05-05 20:45 | 53.22334 | -2.94242 | 37057 ft | 445 kts | 148° |
| 2026-05-05 20:45 | 53.17218 | -2.88436 | 37057 ft | 445 kts | 148° |
| 2026-05-05 20:46 | 53.12096 | -2.82660 | 37055 ft | 445 kts | 148° |
| 2026-05-05 20:46 | 53.06972 | -2.76897 | 37053 ft | 445 kts | 148° |
| 2026-05-05 20:47 | 53.01847 | -2.71143 | 37048 ft | 445 kts | 148° |
| 2026-05-05 20:47 | 52.96716 | -2.65402 | 37026 ft | 444 kts | 148° |
| 2026-05-05 20:48 | 52.91589 | -2.59679 | 37025 ft | 444 kts | 148° |
| 2026-05-05 20:48 | 52.86456 | -2.53964 | 37029 ft | 444 kts | 148° |
| 2026-05-05 20:49 | 52.81320 | -2.48266 | 37026 ft | 444 kts | 148° |
| 2026-05-05 20:49 | 52.76183 | -2.42583 | 37036 ft | 444 kts | 147° |
| 2026-05-05 20:50 | 52.71044 | -2.36918 | 37032 ft | 444 kts | 148° |
| 2026-05-05 20:50 | 52.65900 | -2.31266 | 37035 ft | 444 kts | 147° |
| 2026-05-05 20:51 | 52.60757 | -2.25617 | 37032 ft | 444 kts | 148° |
| 2026-05-05 20:51 | 52.55605 | -2.19992 | 37031 ft | 444 kts | 148° |
| 2026-05-05 20:52 | 52.50449 | -2.14378 | 37032 ft | 444 kts | 148° |
| 2026-05-05 20:52 | 52.45298 | -2.08769 | 37025 ft | 444 kts | 148° |
| 2026-05-05 20:53 | 52.40148 | -2.03176 | 37024 ft | 444 kts | 148° |
| 2026-05-05 20:53 | 52.34993 | -1.97602 | 37025 ft | 444 kts | 148° |
| 2026-05-05 20:54 | 52.29866 | -1.92097 | 37025 ft | 444 kts | 148° |
| 2026-05-05 20:54 | 52.24708 | -1.86555 | 37026 ft | 444 kts | 148° |
| 2026-05-05 20:55 | 52.19556 | -1.81023 | 37022 ft | 443 kts | 148° |
| 2026-05-05 20:55 | 52.14406 | -1.75507 | 37020 ft | 443 kts | 148° |
| 2026-05-05 20:56 | 52.09253 | -1.70018 | 37022 ft | 442 kts | 148° |
| 2026-05-05 20:56 | 52.04108 | -1.64543 | 37020 ft | 442 kts | 148° |
| 2026-05-05 20:57 | 51.98964 | -1.59074 | 37002 ft | 442 kts | 148° |
| 2026-05-05 20:57 | 51.93819 | -1.53645 | 37005 ft | 441 kts | 148° |
| 2026-05-05 20:58 | 51.88667 | -1.48238 | 37006 ft | 441 kts | 148° |
| 2026-05-05 20:58 | 51.83514 | -1.42833 | 37011 ft | 441 kts | 148° |
| 2026-05-05 20:59 | 51.78370 | -1.37437 | 37014 ft | 441 kts | 148° |
| 2026-05-05 20:59 | 51.73226 | -1.32056 | 37013 ft | 440 kts | 148° |
| 2026-05-05 21:00 | 51.68084 | -1.26692 | 36990 ft | 440 kts | 148° |
| 2026-05-05 21:00 | 51.62950 | -1.21348 | 36988 ft | 439 kts | 149° |
| 2026-05-05 21:01 | 51.57818 | -1.16028 | 36986 ft | 439 kts | 149° |
| 2026-05-05 21:01 | 51.52724 | -1.10768 | 36986 ft | 438 kts | 149° |
| 2026-05-05 21:02 | 51.47601 | -1.05488 | 36986 ft | 438 kts | 149° |
| 2026-05-05 21:02 | 51.42478 | -1.00223 | 36981 ft | 437 kts | 149° |
| 2026-05-05 21:03 | 51.37357 | -0.94973 | 36979 ft | 437 kts | 149° |
| 2026-05-05 21:03 | 51.32235 | -0.89729 | 36974 ft | 437 kts | 149° |
| 2026-05-05 21:04 | 51.27117 | -0.84506 | 36976 ft | 437 kts | 149° |
| 2026-05-05 21:04 | 51.21991 | -0.79287 | 36982 ft | 437 kts | 149° |
| 2026-05-05 21:05 | 51.16860 | -0.74088 | 36981 ft | 437 kts | 149° |
| 2026-05-05 21:05 | 51.11734 | -0.68899 | 36976 ft | 437 kts | 149° |
| 2026-05-05 21:06 | 51.06607 | -0.63729 | 36972 ft | 436 kts | 149° |
| 2026-05-05 21:06 | 51.01509 | -0.58490 | 36970 ft | 436 kts | 147° |
| 2026-05-05 21:07 | 50.96489 | -0.53070 | 36971 ft | 436 kts | 147° |
| 2026-05-05 21:07 | 50.91480 | -0.47647 | 36968 ft | 436 kts | 147° |
| 2026-05-05 21:08 | 50.86446 | -0.42282 | 36962 ft | 436 kts | 147° |
| 2026-05-05 21:08 | 50.82256 | -0.37861 | 36963 ft | 435 kts | 147° |
| 2026-05-05 21:09 | 50.77219 | -0.32554 | 36964 ft | 435 kts | 147° |
| 2026-05-05 21:09 | 50.72179 | -0.27250 | 36959 ft | 435 kts | 147° |
| 2026-05-05 21:10 | 50.67143 | -0.21956 | 36955 ft | 435 kts | 147° |
| 2026-05-05 21:10 | 50.62107 | -0.16672 | 36960 ft | 435 kts | 147° |
| 2026-05-05 21:11 | 50.57070 | -0.11407 | 36961 ft | 434 kts | 147° |
| 2026-05-05 21:11 | 50.52032 | -0.06160 | 36966 ft | 434 kts | 147° |
| 2026-05-05 21:12 | 50.47001 | -0.00927 | 36954 ft | 433 kts | 148° |
| 2026-05-05 21:12 | 50.41972 | 0.04279 | 36960 ft | 433 kts | 148° |
| 2026-05-05 21:13 | 50.36949 | 0.09477 | 36960 ft | 432 kts | 148° |
| 2026-05-05 21:13 | 50.31934 | 0.14668 | 36962 ft | 432 kts | 147° |
| 2026-05-05 21:14 | 50.26928 | 0.19837 | 36962 ft | 431 kts | 147° |
| 2026-05-05 21:14 | 50.21911 | 0.24968 | 36954 ft | 431 kts | 147° |
| 2026-05-05 21:15 | 50.16903 | 0.30092 | 36943 ft | 430 kts | 147° |
| 2026-05-05 21:15 | 50.11946 | 0.35197 | 36948 ft | 430 kts | 147° |
| 2026-05-05 21:16 | 50.06961 | 0.40331 | 36951 ft | 429 kts | 147° |
| 2026-05-05 21:16 | 50.01974 | 0.45432 | 36940 ft | 429 kts | 147° |
| 2026-05-05 21:17 | 49.96980 | 0.50514 | 36931 ft | 429 kts | 147° |
| 2026-05-05 21:17 | 49.91985 | 0.55580 | 36929 ft | 429 kts | 147° |
| 2026-05-05 21:18 | 49.86992 | 0.60649 | 36926 ft | 429 kts | 146° |
| 2026-05-05 21:18 | 49.82470 | 0.66667 | 36916 ft | 430 kts | 137° |
| 2026-05-05 21:19 | 49.78119 | 0.73015 | 36909 ft | 430 kts | 137° |
| 2026-05-05 21:19 | 49.73750 | 0.79345 | 36906 ft | 430 kts | 137° |
| 2026-05-05 21:20 | 49.69375 | 0.85660 | 36905 ft | 431 kts | 137° |
| 2026-05-05 21:20 | 49.64994 | 0.91974 | 36898 ft | 431 kts | 137° |
| 2026-05-05 21:21 | 49.60617 | 0.98292 | 36895 ft | 431 kts | 137° |
| 2026-05-05 21:21 | 49.56237 | 1.04603 | 36888 ft | 431 kts | 137° |
| 2026-05-05 21:22 | 49.51871 | 1.10855 | 36886 ft | 431 kts | 138° |
| 2026-05-05 21:22 | 49.47476 | 1.17136 | 36882 ft | 431 kts | 137° |
| 2026-05-05 21:23 | 49.43078 | 1.23413 | 36884 ft | 431 kts | 138° |
| 2026-05-05 21:23 | 49.38671 | 1.29672 | 36885 ft | 432 kts | 138° |
| 2026-05-05 21:24 | 49.34262 | 1.35919 | 36885 ft | 432 kts | 138° |
| 2026-05-05 21:24 | 49.29850 | 1.42159 | 36884 ft | 431 kts | 138° |
| 2026-05-05 21:25 | 49.25438 | 1.48391 | 36882 ft | 431 kts | 138° |
| 2026-05-05 21:25 | 49.21024 | 1.54611 | 36879 ft | 431 kts | 138° |
| 2026-05-05 21:26 | 49.16605 | 1.60817 | 36878 ft | 431 kts | 138° |
| 2026-05-05 21:26 | 49.12181 | 1.67002 | 36866 ft | 431 kts | 138° |
| 2026-05-05 21:27 | 49.07755 | 1.73182 | 36865 ft | 431 kts | 138° |
| 2026-05-05 21:27 | 49.03333 | 1.79354 | 36862 ft | 431 kts | 138° |
| 2026-05-05 21:28 | 48.98909 | 1.85506 | 36865 ft | 431 kts | 139° |
| 2026-05-05 21:28 | 48.94478 | 1.91645 | 36864 ft | 431 kts | 139° |
| 2026-05-05 21:29 | 48.90045 | 1.97766 | 36861 ft | 430 kts | 139° |
| 2026-05-05 21:29 | 48.85645 | 2.03841 | 36860 ft | 430 kts | 139° |
| 2026-05-05 21:30 | 48.81210 | 2.09945 | 36856 ft | 430 kts | 139° |
| 2026-05-05 21:30 | 48.76766 | 2.16036 | 36858 ft | 431 kts | 139° |
| 2026-05-05 21:31 | 48.72318 | 2.22121 | 36852 ft | 431 kts | 139° |
| 2026-05-05 21:31 | 48.67869 | 2.28209 | 36850 ft | 431 kts | 139° |
| 2026-05-05 21:32 | 48.63411 | 2.34296 | 36851 ft | 432 kts | 139° |
| 2026-05-05 21:32 | 48.58940 | 2.40372 | 36849 ft | 432 kts | 139° |
| 2026-05-05 21:33 | 48.54456 | 2.46441 | 36824 ft | 433 kts | 139° |
| 2026-05-05 21:33 | 48.49968 | 2.52511 | 36821 ft | 434 kts | 139° |
| 2026-05-05 21:34 | 48.45469 | 2.58574 | 36823 ft | 434 kts | 139° |
| 2026-05-05 21:34 | 48.40963 | 2.64643 | 36826 ft | 435 kts | 139° |
| 2026-05-05 21:35 | 48.36449 | 2.70703 | 36829 ft | 435 kts | 139° |
| 2026-05-05 21:35 | 48.31926 | 2.76748 | 36830 ft | 435 kts | 140° |
| 2026-05-05 21:36 | 48.27394 | 2.82783 | 36840 ft | 436 kts | 140° |
| 2026-05-05 21:36 | 48.22687 | 2.88510 | 36851 ft | 435 kts | 144° |
| 2026-05-05 21:37 | 48.17844 | 2.93952 | 36846 ft | 435 kts | 144° |
| 2026-05-05 21:37 | 48.13004 | 2.99398 | 36848 ft | 435 kts | 144° |
| 2026-05-05 21:38 | 48.08103 | 3.04704 | 36853 ft | 434 kts | 152° |
| 2026-05-05 21:38 | 48.02629 | 3.08408 | 36858 ft | 432 kts | 158° |
| 2026-05-05 21:39 | 47.97089 | 3.11903 | 36857 ft | 432 kts | 158° |
| 2026-05-05 21:39 | 47.91589 | 3.15350 | 36869 ft | 432 kts | 159° |
| 2026-05-05 21:40 | 47.86052 | 3.18815 | 36868 ft | 431 kts | 159° |
| 2026-05-05 21:40 | 47.80523 | 3.22280 | 36871 ft | 431 kts | 158° |
| 2026-05-05 21:41 | 47.74989 | 3.25741 | 36877 ft | 431 kts | 159° |
| 2026-05-05 21:41 | 47.69461 | 3.29183 | 36878 ft | 431 kts | 159° |
| 2026-05-05 21:42 | 47.63932 | 3.32621 | 36876 ft | 431 kts | 159° |
| 2026-05-05 21:42 | 47.58402 | 3.36044 | 36880 ft | 431 kts | 159° |
| 2026-05-05 21:43 | 47.52872 | 3.39465 | 36880 ft | 431 kts | 159° |
| 2026-05-05 21:43 | 47.47341 | 3.42889 | 36885 ft | 431 kts | 159° |
| 2026-05-05 21:44 | 47.41805 | 3.46295 | 36891 ft | 431 kts | 159° |
| 2026-05-05 21:44 | 47.36268 | 3.49693 | 36895 ft | 431 kts | 159° |
| 2026-05-05 21:45 | 47.30730 | 3.53082 | 36896 ft | 431 kts | 159° |
| 2026-05-05 21:45 | 47.25188 | 3.56466 | 36899 ft | 431 kts | 159° |
| 2026-05-05 21:46 | 47.19649 | 3.59852 | 36904 ft | 431 kts | 159° |
| 2026-05-05 21:46 | 47.14112 | 3.63224 | 36908 ft | 431 kts | 159° |
| 2026-05-05 21:47 | 47.08572 | 3.66587 | 36914 ft | 431 kts | 159° |
| 2026-05-05 21:47 | 47.03033 | 3.69944 | 36916 ft | 431 kts | 159° |
| 2026-05-05 21:48 | 46.97610 | 3.73659 | 36922 ft | 433 kts | 148° |
| 2026-05-05 21:48 | 46.95255 | 3.76413 | 36920 ft | 435 kts | 137° |
| 2026-05-05 21:48 | 46.93305 | 3.79807 | 36918 ft | 438 kts | 126° |
| 2026-05-05 21:49 | 46.91836 | 3.83732 | 36918 ft | 442 kts | 114° |
| 2026-05-05 21:49 | 46.90729 | 3.87932 | 36914 ft | 443 kts | 113° |
| 2026-05-05 21:49 | 46.88530 | 3.96280 | 36911 ft | 443 kts | 114° |
| 2026-05-05 21:50 | 46.86287 | 4.04674 | 36918 ft | 444 kts | 114° |
| 2026-05-05 21:50 | 46.84038 | 4.13072 | 36919 ft | 444 kts | 114° |
| 2026-05-05 21:51 | 46.81784 | 4.21471 | 36774 ft | 445 kts | 114° |
| 2026-05-05 21:51 | 46.80707 | 4.25697 | 36516 ft | 445 kts | 109° |
| 2026-05-05 21:51 | 46.79984 | 4.30101 | 36268 ft | 447 kts | 104° |
| 2026-05-05 21:52 | 46.78709 | 4.38952 | 35379 ft | 444 kts | 105° |
| 2026-05-05 21:52 | 46.78070 | 4.43342 | 34875 ft | 441 kts | 105° |
| 2026-05-05 21:52 | 46.77431 | 4.47704 | 34377 ft | 439 kts | 105° |
| 2026-05-05 21:53 | 46.76791 | 4.52045 | 33863 ft | 437 kts | 105° |
| 2026-05-05 21:53 | 46.76154 | 4.56359 | 33321 ft | 433 kts | 105° |
| 2026-05-05 21:53 | 46.75524 | 4.60633 | 32835 ft | 429 kts | 106° |
| 2026-05-05 21:53 | 46.74897 | 4.64865 | 32343 ft | 425 kts | 106° |
| 2026-05-05 21:54 | 46.74274 | 4.69062 | 31870 ft | 421 kts | 107° |
| 2026-05-05 21:54 | 46.73659 | 4.73217 | 31392 ft | 418 kts | 107° |
| 2026-05-05 21:54 | 46.73046 | 4.77341 | 30925 ft | 415 kts | 107° |
| 2026-05-05 21:54 | 46.72434 | 4.81433 | 30457 ft | 412 kts | 108° |
| 2026-05-05 21:55 | 46.71825 | 4.85492 | 30005 ft | 408 kts | 108° |
| 2026-05-05 21:55 | 46.71221 | 4.89515 | 29508 ft | 404 kts | 108° |
| 2026-05-05 21:55 | 46.70621 | 4.93492 | 29084 ft | 399 kts | 108° |
| 2026-05-05 21:55 | 46.70029 | 4.97411 | 28656 ft | 394 kts | 108° |
| 2026-05-05 21:56 | 46.69441 | 5.01284 | 28237 ft | 389 kts | 108° |
| 2026-05-05 21:56 | 46.68861 | 5.05106 | 27828 ft | 384 kts | 108° |
| 2026-05-05 21:56 | 46.68288 | 5.08883 | 27410 ft | 380 kts | 108° |
| 2026-05-05 21:56 | 46.67717 | 5.12616 | 27007 ft | 376 kts | 108° |
| 2026-05-05 21:57 | 46.67151 | 5.16315 | 26608 ft | 372 kts | 108° |
| 2026-05-05 21:57 | 46.66779 | 5.18744 | 26326 ft | 370 kts | 108° |
| 2026-05-05 21:57 | 46.66226 | 5.22387 | 25914 ft | 367 kts | 107° |
| 2026-05-05 21:57 | 46.65682 | 5.26002 | 25498 ft | 364 kts | 107° |
| 2026-05-05 21:58 | 46.65141 | 5.29597 | 25072 ft | 362 kts | 107° |
| 2026-05-05 21:58 | 46.64602 | 5.33170 | 24652 ft | 360 kts | 107° |
| 2026-05-05 21:58 | 46.64063 | 5.36721 | 24214 ft | 359 kts | 107° |
| 2026-05-05 21:58 | 46.63523 | 5.40257 | 23783 ft | 357 kts | 106° |
| 2026-05-05 21:59 | 46.62982 | 5.43777 | 23326 ft | 356 kts | 106° |
| 2026-05-05 21:59 | 46.62443 | 5.47285 | 22861 ft | 354 kts | 106° |
| 2026-05-05 21:59 | 46.61910 | 5.50767 | 22440 ft | 351 kts | 106° |
| 2026-05-05 21:59 | 46.61378 | 5.54223 | 22011 ft | 349 kts | 106° |
| 2026-05-05 22:00 | 46.60846 | 5.57656 | 21592 ft | 347 kts | 106° |
| 2026-05-05 22:00 | 46.60314 | 5.61065 | 21177 ft | 345 kts | 107° |
| 2026-05-05 22:00 | 46.59779 | 5.64450 | 20766 ft | 343 kts | 107° |
| 2026-05-05 22:00 | 46.59246 | 5.67818 | 20354 ft | 341 kts | 107° |
| 2026-05-05 22:01 | 46.58717 | 5.71171 | 19948 ft | 340 kts | 106° |
| 2026-05-05 22:01 | 46.58191 | 5.74517 | 19543 ft | 339 kts | 106° |
| 2026-05-05 22:01 | 46.57575 | 5.77802 | 19145 ft | 335 kts | 115° |
| 2026-05-05 22:01 | 46.56518 | 5.80774 | 18744 ft | 329 kts | 128° |
| 2026-05-05 22:02 | 46.55056 | 5.83285 | 18336 ft | 324 kts | 140° |
| 2026-05-05 22:02 | 46.53286 | 5.85270 | 17925 ft | 320 kts | 149° |
| 2026-05-05 22:02 | 46.51453 | 5.87098 | 17530 ft | 319 kts | 148° |
| 2026-05-05 22:02 | 46.49657 | 5.88897 | 17123 ft | 318 kts | 148° |
| 2026-05-05 22:03 | 46.47843 | 5.90722 | 16707 ft | 318 kts | 148° |
| 2026-05-05 22:03 | 46.46030 | 5.92550 | 16277 ft | 318 kts | 148° |
| 2026-05-05 22:03 | 46.44210 | 5.94381 | 15852 ft | 318 kts | 148° |
| 2026-05-05 22:03 | 46.42389 | 5.96211 | 15423 ft | 319 kts | 148° |
| 2026-05-05 22:04 | 46.40564 | 5.98041 | 15003 ft | 319 kts | 148° |
| 2026-05-05 22:04 | 46.38738 | 5.99873 | 14577 ft | 320 kts | 146° |
| 2026-05-05 22:04 | 46.37225 | 6.02211 | 14372 ft | 319 kts | 123° |
| 2026-05-05 22:04 | 46.36521 | 6.05261 | 14004 ft | 325 kts | 95° |
| 2026-05-05 22:05 | 46.36823 | 6.08467 | 13665 ft | 322 kts | 69° |
| 2026-05-05 22:05 | 46.38025 | 6.11157 | 13026 ft | 320 kts | 46° |
| 2026-05-05 22:05 | 46.39590 | 6.13453 | 12337 ft | 319 kts | 45° |
| 2026-05-05 22:05 | 46.41143 | 6.15707 | 11831 ft | 312 kts | 45° |
| 2026-05-05 22:06 | 46.42658 | 6.17908 | 11414 ft | 305 kts | 46° |
| 2026-05-05 22:06 | 46.44135 | 6.20064 | 10831 ft | 303 kts | 46° |
| 2026-05-05 22:06 | 46.45579 | 6.22294 | 10200 ft | 301 kts | 55° |
| 2026-05-05 22:06 | 46.46399 | 6.25051 | 9381 ft | 300 kts | 84° |
| 2026-05-05 22:07 | 46.46537 | 6.28065 | 8565 ft | 300 kts | 92° |
| 2026-05-05 22:07 | 46.46562 | 6.30994 | 8394 ft | 280 kts | 93° |
| 2026-05-05 22:07 | 46.46368 | 6.33693 | 7975 ft | 265 kts | 115° |
| 2026-05-05 22:07 | 46.45384 | 6.35871 | 7271 ft | 257 kts | 144° |
| 2026-05-05 22:08 | 46.43836 | 6.37030 | 6609 ft | 249 kts | 172° |
| 2026-05-05 22:08 | 46.42154 | 6.36961 | 6117 ft | 238 kts | 199° |
| 2026-05-05 22:08 | 46.40754 | 6.35876 | 5811 ft | 223 kts | 221° |
| 2026-05-05 22:08 | 46.39667 | 6.34302 | 5507 ft | 221 kts | 225° |
| 2026-05-05 22:09 | 46.38596 | 6.32711 | 5226 ft | 220 kts | 225° |
| 2026-05-05 22:09 | 46.37527 | 6.31127 | 4935 ft | 219 kts | 225° |
| 2026-05-05 22:09 | 46.36488 | 6.29589 | 4654 ft | 208 kts | 225° |
| 2026-05-05 22:09 | 46.35504 | 6.28134 | 4371 ft | 198 kts | 225° |
| 2026-05-05 22:10 | 46.34556 | 6.26734 | 4113 ft | 191 kts | 225° |
| 2026-05-05 22:10 | 46.33663 | 6.25414 | 3870 ft | 177 kts | 225° |
| 2026-05-05 22:10 | 46.32829 | 6.24183 | 3637 ft | 164 kts | 224° |
| 2026-05-05 22:10 | 46.32058 | 6.23045 | 3437 ft | 151 kts | 225° |
| 2026-05-05 22:11 | 46.31357 | 6.22011 | 3231 ft | 142 kts | 224° |
| 2026-05-05 22:11 | 46.30674 | 6.21005 | 3040 ft | 139 kts | 225° |
| 2026-05-05 22:11 | 46.29999 | 6.20010 | 2838 ft | 138 kts | 225° |
| 2026-05-05 22:11 | 46.29323 | 6.19015 | 2642 ft | 139 kts | 225° |
| 2026-05-05 22:12 | 46.28641 | 6.18009 | 2437 ft | 141 kts | 226° |
| 2026-05-05 22:12 | 46.27949 | 6.16991 | 2228 ft | 143 kts | 226° |
| 2026-05-05 22:12 | 46.27250 | 6.15962 | 2039 ft | 144 kts | 226° |
| 2026-05-05 22:12 | 46.26547 | 6.14928 | 1849 ft | 144 kts | 226° |
| 2026-05-05 22:13 | 46.25847 | 6.13898 | 1671 ft | 143 kts | 226° |
| 2026-05-05 22:13 | 46.25152 | 6.12877 | 1459 ft | 142 kts | 226° |
| 2026-05-05 22:13 | 46.24488 | 6.11896 | 1372 ft | 123 kts | 227° |
| 2026-05-05 22:13 | 46.24019 | 6.11208 | 1376 ft | 71 kts | 225° |
| 2026-05-05 22:14 | 46.23773 | 6.10850 | 1382 ft | 34 kts | 220° |
| 2026-05-05 22:14 | 46.23638 | 6.10749 | 1381 ft | 11 kts | 200° |
| 2026-05-05 22:14 | 46.23580 | 6.10722 | 1384 ft | 6 kts | 195° |
| 2026-05-05 22:14 | 46.23533 | 6.10703 | 1386 ft | 9 kts | 195° |
| 2026-05-05 22:15 | 46.23495 | 6.10689 | 1385 ft | 4 kts | 195° |
| 2026-05-05 22:15 | 46.23432 | 6.10661 | 1386 ft | 13 kts | 201° |
| 2026-05-05 22:15 | 46.23370 | 6.10599 | 1395 ft | 10 kts | 224° |
| 2026-05-05 22:15 | 46.23307 | 6.10508 | 1401 ft | 14 kts | 224° |
| 2026-05-05 22:16 | 46.23242 | 6.10436 | 1394 ft | 10 kts | 191° |
| 2026-05-05 22:16 | 46.23188 | 6.10437 | 1395 ft | 5 kts | 181° |
| 2026-05-05 22:16 | 46.23164 | 6.10437 | 1393 ft | 2 kts | 179° |
| 2026-05-05 22:16 | 46.23160 | 6.10437 | 1393 ft | 0 kts | 181° |